sensor_id;sensor_type;location;lat;lon;timestamp;P1;durP1;ratioP1;P2;durP2;ratioP2
85785;SDS011;76225;52.474;13.332;2024-03-02T00:00:08;46.35;;;19.85;;
85785;SDS011;76225;52.474;13.332;2024-03-02T00:02:55;52.03;;;22.48;;
85785;SDS011;76225;52.474;13.332;2024-03-02T00:05:22;45.85;;;20.42;;
85785;SDS011;76225;52.474;13.332;2024-03-02T00:10:20;49.95;;;19.13;;
85785;SDS011;76225;52.474;13.332;2024-03-02T00:12:54;47.40;;;20.50;;
85785;SDS011;76225;52.474;13.332;2024-03-02T00:17:56;46.10;;;20.95;;
85785;SDS011;76225;52.474;13.332;2024-03-02T00:20:22;50.25;;;21.33;;
85785;SDS011;76225;52.474;13.332;2024-03-02T00:22:50;50.53;;;22.17;;
85785;SDS011;76225;52.474;13.332;2024-03-02T00:25:17;50.28;;;23.67;;
85785;SDS011;76225;52.474;13.332;2024-03-02T00:27:47;48.67;;;21.50;;
85785;SDS011;76225;52.474;13.332;2024-03-02T00:33:23;46.78;;;22.00;;
85785;SDS011;76225;52.474;13.332;2024-03-02T00:35:51;50.63;;;22.25;;
85785;SDS011;76225;52.474;13.332;2024-03-02T00:38:16;45.45;;;21.10;;
85785;SDS011;76225;52.474;13.332;2024-03-02T00:40:43;41.85;;;19.73;;
85785;SDS011;76225;52.474;13.332;2024-03-02T00:46:13;48.08;;;22.35;;
85785;SDS011;76225;52.474;13.332;2024-03-02T00:48:59;48.80;;;21.83;;
85785;SDS011;76225;52.474;13.332;2024-03-02T00:51:54;54.30;;;23.23;;
85785;SDS011;76225;52.474;13.332;2024-03-02T00:54:21;52.47;;;22.90;;
85785;SDS011;76225;52.474;13.332;2024-03-02T00:56:53;46.72;;;22.25;;
85785;SDS011;76225;52.474;13.332;2024-03-02T00:59:20;48.60;;;22.88;;
85785;SDS011;76225;52.474;13.332;2024-03-02T01:01:47;52.45;;;23.80;;
85785;SDS011;76225;52.474;13.332;2024-03-02T01:04:14;47.42;;;22.63;;
85785;SDS011;76225;52.474;13.332;2024-03-02T01:06:42;49.17;;;23.17;;
85785;SDS011;76225;52.474;13.332;2024-03-02T01:09:23;49.63;;;22.77;;
85785;SDS011;76225;52.474;13.332;2024-03-02T01:11:49;49.78;;;23.20;;
85785;SDS011;76225;52.474;13.332;2024-03-02T01:14:35;47.40;;;21.85;;
85785;SDS011;76225;52.474;13.332;2024-03-02T01:17:03;51.85;;;23.35;;
85785;SDS011;76225;52.474;13.332;2024-03-02T01:19:44;57.63;;;23.30;;
85785;SDS011;76225;52.474;13.332;2024-03-02T01:22:12;51.30;;;22.92;;
85785;SDS011;76225;52.474;13.332;2024-03-02T01:25:03;48.08;;;23.08;;
85785;SDS011;76225;52.474;13.332;2024-03-02T01:27:29;52.95;;;23.50;;
85785;SDS011;76225;52.474;13.332;2024-03-02T01:29:54;53.50;;;22.65;;
85785;SDS011;76225;52.474;13.332;2024-03-02T01:32:20;49.30;;;23.83;;
85785;SDS011;76225;52.474;13.332;2024-03-02T01:34:47;57.17;;;24.60;;
85785;SDS011;76225;52.474;13.332;2024-03-02T01:37:13;49.13;;;23.63;;
85785;SDS011;76225;52.474;13.332;2024-03-02T01:39:38;56.75;;;24.17;;
85785;SDS011;76225;52.474;13.332;2024-03-02T01:42:04;56.47;;;25.50;;
85785;SDS011;76225;52.474;13.332;2024-03-02T01:44:29;63.28;;;26.55;;
85785;SDS011;76225;52.474;13.332;2024-03-02T01:46:55;57.92;;;25.83;;
85785;SDS011;76225;52.474;13.332;2024-03-02T01:49:21;55.30;;;24.92;;
85785;SDS011;76225;52.474;13.332;2024-03-02T01:51:48;52.47;;;25.25;;
85785;SDS011;76225;52.474;13.332;2024-03-02T01:54:15;61.47;;;24.17;;
85785;SDS011;76225;52.474;13.332;2024-03-02T01:56:41;59.17;;;26.52;;
85785;SDS011;76225;52.474;13.332;2024-03-02T01:59:06;55.90;;;25.10;;
85785;SDS011;76225;52.474;13.332;2024-03-02T02:01:32;53.35;;;24.95;;
85785;SDS011;76225;52.474;13.332;2024-03-02T02:04:02;56.75;;;25.63;;
85785;SDS011;76225;52.474;13.332;2024-03-02T02:06:31;60.80;;;26.00;;
85785;SDS011;76225;52.474;13.332;2024-03-02T02:08:57;67.35;;;27.05;;
85785;SDS011;76225;52.474;13.332;2024-03-02T02:11:23;56.08;;;25.88;;
85785;SDS011;76225;52.474;13.332;2024-03-02T02:13:50;59.83;;;27.20;;
85785;SDS011;76225;52.474;13.332;2024-03-02T02:16:15;54.20;;;24.63;;
85785;SDS011;76225;52.474;13.332;2024-03-02T02:18:44;56.33;;;25.55;;
85785;SDS011;76225;52.474;13.332;2024-03-02T02:21:16;57.10;;;25.85;;
85785;SDS011;76225;52.474;13.332;2024-03-02T02:23:41;57.47;;;25.90;;
85785;SDS011;76225;52.474;13.332;2024-03-02T02:26:11;53.03;;;25.20;;
85785;SDS011;76225;52.474;13.332;2024-03-02T02:28:37;53.67;;;26.23;;
85785;SDS011;76225;52.474;13.332;2024-03-02T02:31:02;55.38;;;25.58;;
85785;SDS011;76225;52.474;13.332;2024-03-02T02:33:28;60.63;;;27.75;;
85785;SDS011;76225;52.474;13.332;2024-03-02T02:35:54;61.55;;;26.75;;
85785;SDS011;76225;52.474;13.332;2024-03-02T02:38:20;62.75;;;28.23;;
85785;SDS011;76225;52.474;13.332;2024-03-02T02:40:49;63.17;;;27.88;;
85785;SDS011;76225;52.474;13.332;2024-03-02T02:43:16;65.22;;;27.60;;
85785;SDS011;76225;52.474;13.332;2024-03-02T02:45:42;59.60;;;27.50;;
85785;SDS011;76225;52.474;13.332;2024-03-02T02:48:08;62.42;;;25.05;;
85785;SDS011;76225;52.474;13.332;2024-03-02T02:50:33;62.33;;;27.48;;
85785;SDS011;76225;52.474;13.332;2024-03-02T02:53:01;59.72;;;25.73;;
85785;SDS011;76225;52.474;13.332;2024-03-02T02:55:26;56.78;;;26.40;;
85785;SDS011;76225;52.474;13.332;2024-03-02T02:57:52;56.92;;;26.25;;
85785;SDS011;76225;52.474;13.332;2024-03-02T03:00:23;61.75;;;26.20;;
85785;SDS011;76225;52.474;13.332;2024-03-02T03:02:49;60.25;;;26.90;;
85785;SDS011;76225;52.474;13.332;2024-03-02T03:05:16;62.42;;;27.10;;
85785;SDS011;76225;52.474;13.332;2024-03-02T03:07:42;54.42;;;25.92;;
85785;SDS011;76225;52.474;13.332;2024-03-02T03:10:09;54.13;;;25.77;;
85785;SDS011;76225;52.474;13.332;2024-03-02T03:12:35;51.22;;;24.35;;
85785;SDS011;76225;52.474;13.332;2024-03-02T03:15:01;57.70;;;25.17;;
85785;SDS011;76225;52.474;13.332;2024-03-02T03:17:30;56.08;;;24.95;;
85785;SDS011;76225;52.474;13.332;2024-03-02T03:19:56;61.30;;;26.45;;
85785;SDS011;76225;52.474;13.332;2024-03-02T03:22:22;50.00;;;25.10;;
85785;SDS011;76225;52.474;13.332;2024-03-02T03:24:50;52.03;;;23.63;;
85785;SDS011;76225;52.474;13.332;2024-03-02T03:27:15;52.83;;;26.17;;
85785;SDS011;76225;52.474;13.332;2024-03-02T03:29:41;56.33;;;24.83;;
85785;SDS011;76225;52.474;13.332;2024-03-02T03:32:07;53.38;;;24.27;;
85785;SDS011;76225;52.474;13.332;2024-03-02T03:34:33;50.38;;;24.02;;
85785;SDS011;76225;52.474;13.332;2024-03-02T03:37:02;53.10;;;23.73;;
85785;SDS011;76225;52.474;13.332;2024-03-02T03:39:28;55.30;;;24.23;;
85785;SDS011;76225;52.474;13.332;2024-03-02T03:41:54;51.28;;;25.58;;
85785;SDS011;76225;52.474;13.332;2024-03-02T03:44:22;50.67;;;24.50;;
85785;SDS011;76225;52.474;13.332;2024-03-02T03:46:47;53.53;;;25.52;;
85785;SDS011;76225;52.474;13.332;2024-03-02T03:49:12;59.45;;;25.23;;
85785;SDS011;76225;52.474;13.332;2024-03-02T03:51:38;56.63;;;25.10;;
85785;SDS011;76225;52.474;13.332;2024-03-02T03:54:05;51.17;;;24.98;;
85785;SDS011;76225;52.474;13.332;2024-03-02T03:56:32;52.30;;;23.65;;
85785;SDS011;76225;52.474;13.332;2024-03-02T03:58:57;53.95;;;23.90;;
85785;SDS011;76225;52.474;13.332;2024-03-02T04:01:24;50.92;;;22.85;;
85785;SDS011;76225;52.474;13.332;2024-03-02T04:03:50;52.05;;;23.60;;
85785;SDS011;76225;52.474;13.332;2024-03-02T04:06:17;49.90;;;23.00;;
85785;SDS011;76225;52.474;13.332;2024-03-02T04:08:44;53.47;;;23.42;;
85785;SDS011;76225;52.474;13.332;2024-03-02T04:11:09;50.50;;;22.80;;
85785;SDS011;76225;52.474;13.332;2024-03-02T04:13:35;53.85;;;22.85;;
85785;SDS011;76225;52.474;13.332;2024-03-02T04:16:00;54.13;;;23.80;;
85785;SDS011;76225;52.474;13.332;2024-03-02T04:18:26;46.67;;;22.95;;
85785;SDS011;76225;52.474;13.332;2024-03-02T04:20:51;48.53;;;23.05;;
85785;SDS011;76225;52.474;13.332;2024-03-02T04:23:18;53.28;;;24.02;;
85785;SDS011;76225;52.474;13.332;2024-03-02T04:25:43;48.78;;;23.60;;
85785;SDS011;76225;52.474;13.332;2024-03-02T04:28:08;53.60;;;23.92;;
85785;SDS011;76225;52.474;13.332;2024-03-02T04:30:34;54.42;;;22.30;;
85785;SDS011;76225;52.474;13.332;2024-03-02T04:33:01;54.00;;;23.25;;
85785;SDS011;76225;52.474;13.332;2024-03-02T04:35:27;46.40;;;22.40;;
85785;SDS011;76225;52.474;13.332;2024-03-02T04:37:53;50.03;;;22.27;;
85785;SDS011;76225;52.474;13.332;2024-03-02T04:40:19;49.10;;;23.45;;
85785;SDS011;76225;52.474;13.332;2024-03-02T04:42:44;45.13;;;21.52;;
85785;SDS011;76225;52.474;13.332;2024-03-02T04:45:09;49.97;;;22.00;;
85785;SDS011;76225;52.474;13.332;2024-03-02T04:47:37;50.08;;;22.90;;
85785;SDS011;76225;52.474;13.332;2024-03-02T04:50:03;47.47;;;22.10;;
85785;SDS011;76225;52.474;13.332;2024-03-02T04:52:29;47.70;;;22.70;;
85785;SDS011;76225;52.474;13.332;2024-03-02T04:54:55;45.97;;;21.85;;
85785;SDS011;76225;52.474;13.332;2024-03-02T04:57:50;51.10;;;22.63;;
85785;SDS011;76225;52.474;13.332;2024-03-02T05:00:19;46.28;;;21.67;;
85785;SDS011;76225;52.474;13.332;2024-03-02T05:02:48;46.45;;;22.05;;
85785;SDS011;76225;52.474;13.332;2024-03-02T05:05:14;46.67;;;22.08;;
85785;SDS011;76225;52.474;13.332;2024-03-02T05:07:40;47.50;;;23.08;;
85785;SDS011;76225;52.474;13.332;2024-03-02T05:10:09;53.45;;;23.52;;
85785;SDS011;76225;52.474;13.332;2024-03-02T05:12:44;44.03;;;22.30;;
85785;SDS011;76225;52.474;13.332;2024-03-02T05:15:15;50.28;;;22.67;;
85785;SDS011;76225;52.474;13.332;2024-03-02T05:17:42;44.47;;;22.77;;
85785;SDS011;76225;52.474;13.332;2024-03-02T05:20:08;49.53;;;22.75;;
85785;SDS011;76225;52.474;13.332;2024-03-02T05:22:34;52.78;;;23.25;;
85785;SDS011;76225;52.474;13.332;2024-03-02T05:25:01;51.63;;;23.77;;
85785;SDS011;76225;52.474;13.332;2024-03-02T05:27:27;53.42;;;23.58;;
85785;SDS011;76225;52.474;13.332;2024-03-02T05:29:53;51.22;;;23.95;;
85785;SDS011;76225;52.474;13.332;2024-03-02T05:32:18;53.30;;;24.55;;
85785;SDS011;76225;52.474;13.332;2024-03-02T05:34:44;58.50;;;24.05;;
85785;SDS011;76225;52.474;13.332;2024-03-02T05:37:09;50.00;;;23.25;;
85785;SDS011;76225;52.474;13.332;2024-03-02T05:39:36;50.65;;;23.77;;
85785;SDS011;76225;52.474;13.332;2024-03-02T05:42:08;52.97;;;23.40;;
85785;SDS011;76225;52.474;13.332;2024-03-02T05:44:36;50.03;;;24.30;;
85785;SDS011;76225;52.474;13.332;2024-03-02T05:47:01;55.30;;;25.63;;
85785;SDS011;76225;52.474;13.332;2024-03-02T05:49:28;54.00;;;23.80;;
85785;SDS011;76225;52.474;13.332;2024-03-02T05:51:54;58.85;;;23.77;;
85785;SDS011;76225;52.474;13.332;2024-03-02T05:54:19;52.42;;;25.25;;
85785;SDS011;76225;52.474;13.332;2024-03-02T05:56:45;58.70;;;26.45;;
85785;SDS011;76225;52.474;13.332;2024-03-02T05:59:10;58.95;;;27.42;;
85785;SDS011;76225;52.474;13.332;2024-03-02T06:04:05;52.80;;;24.85;;
85785;SDS011;76225;52.474;13.332;2024-03-02T06:06:30;54.92;;;25.17;;
85785;SDS011;76225;52.474;13.332;2024-03-02T06:08:59;54.00;;;24.42;;
85785;SDS011;76225;52.474;13.332;2024-03-02T06:11:38;58.60;;;24.90;;
85785;SDS011;76225;52.474;13.332;2024-03-02T06:14:07;53.45;;;23.27;;
85785;SDS011;76225;52.474;13.332;2024-03-02T06:16:34;54.67;;;25.20;;
85785;SDS011;76225;52.474;13.332;2024-03-02T06:19:00;57.05;;;24.85;;
85785;SDS011;76225;52.474;13.332;2024-03-02T06:21:26;62.20;;;25.63;;
85785;SDS011;76225;52.474;13.332;2024-03-02T06:23:52;62.38;;;26.42;;
85785;SDS011;76225;52.474;13.332;2024-03-02T06:26:19;52.05;;;24.00;;
85785;SDS011;76225;52.474;13.332;2024-03-02T06:28:45;55.78;;;24.35;;
85785;SDS011;76225;52.474;13.332;2024-03-02T06:31:11;52.83;;;25.35;;
85785;SDS011;76225;52.474;13.332;2024-03-02T06:33:37;58.50;;;24.90;;
85785;SDS011;76225;52.474;13.332;2024-03-02T06:36:03;61.38;;;26.42;;
85785;SDS011;76225;52.474;13.332;2024-03-02T06:38:42;62.10;;;25.58;;
85785;SDS011;76225;52.474;13.332;2024-03-02T06:41:08;49.67;;;24.73;;
85785;SDS011;76225;52.474;13.332;2024-03-02T06:43:33;52.70;;;24.13;;
85785;SDS011;76225;52.474;13.332;2024-03-02T06:45:59;54.22;;;24.15;;
85785;SDS011;76225;52.474;13.332;2024-03-02T06:48:24;53.97;;;24.58;;
85785;SDS011;76225;52.474;13.332;2024-03-02T06:50:51;52.40;;;23.27;;
85785;SDS011;76225;52.474;13.332;2024-03-02T06:53:18;60.83;;;24.98;;
85785;SDS011;76225;52.474;13.332;2024-03-02T06:55:47;55.80;;;23.77;;
85785;SDS011;76225;52.474;13.332;2024-03-02T06:58:16;56.10;;;24.27;;
85785;SDS011;76225;52.474;13.332;2024-03-02T07:00:44;55.35;;;23.90;;
85785;SDS011;76225;52.474;13.332;2024-03-02T07:03:10;58.42;;;24.95;;
85785;SDS011;76225;52.474;13.332;2024-03-02T07:10:59;56.60;;;24.30;;
85785;SDS011;76225;52.474;13.332;2024-03-02T07:15:56;50.58;;;22.23;;
85785;SDS011;76225;52.474;13.332;2024-03-02T07:19:09;53.80;;;22.85;;
85785;SDS011;76225;52.474;13.332;2024-03-02T07:21:35;55.58;;;24.05;;
85785;SDS011;76225;52.474;13.332;2024-03-02T07:24:02;53.25;;;23.90;;
85785;SDS011;76225;52.474;13.332;2024-03-02T07:26:28;53.40;;;23.73;;
85785;SDS011;76225;52.474;13.332;2024-03-02T07:28:56;58.33;;;23.83;;
85785;SDS011;76225;52.474;13.332;2024-03-02T07:31:22;51.03;;;23.52;;
85785;SDS011;76225;52.474;13.332;2024-03-02T07:33:48;54.47;;;23.20;;
85785;SDS011;76225;52.474;13.332;2024-03-02T07:36:14;63.67;;;24.48;;
85785;SDS011;76225;52.474;13.332;2024-03-02T07:38:40;49.10;;;22.67;;
85785;SDS011;76225;52.474;13.332;2024-03-02T07:41:05;47.72;;;21.60;;
85785;SDS011;76225;52.474;13.332;2024-03-02T07:43:33;51.03;;;22.67;;
85785;SDS011;76225;52.474;13.332;2024-03-02T07:46:00;51.22;;;22.52;;
85785;SDS011;76225;52.474;13.332;2024-03-02T07:48:25;53.95;;;23.13;;
85785;SDS011;76225;52.474;13.332;2024-03-02T07:50:52;57.28;;;23.40;;
85785;SDS011;76225;52.474;13.332;2024-03-02T07:53:18;48.78;;;21.35;;
85785;SDS011;76225;52.474;13.332;2024-03-02T07:55:43;43.10;;;20.65;;
85785;SDS011;76225;52.474;13.332;2024-03-02T07:58:13;49.33;;;22.02;;
85785;SDS011;76225;52.474;13.332;2024-03-02T08:00:43;51.97;;;22.98;;
85785;SDS011;76225;52.474;13.332;2024-03-02T08:03:09;50.47;;;21.95;;
85785;SDS011;76225;52.474;13.332;2024-03-02T08:05:38;46.45;;;21.40;;
85785;SDS011;76225;52.474;13.332;2024-03-02T08:08:05;51.35;;;22.58;;
85785;SDS011;76225;52.474;13.332;2024-03-02T08:10:31;46.95;;;21.92;;
85785;SDS011;76225;52.474;13.332;2024-03-02T08:12:58;53.72;;;21.92;;
85785;SDS011;76225;52.474;13.332;2024-03-02T08:15:24;45.70;;;21.63;;
85785;SDS011;76225;52.474;13.332;2024-03-02T08:17:49;44.88;;;21.40;;
85785;SDS011;76225;52.474;13.332;2024-03-02T08:20:15;47.45;;;22.33;;
85785;SDS011;76225;52.474;13.332;2024-03-02T08:22:41;46.33;;;21.23;;
85785;SDS011;76225;52.474;13.332;2024-03-02T08:25:07;47.13;;;22.42;;
85785;SDS011;76225;52.474;13.332;2024-03-02T08:27:33;48.50;;;21.30;;
85785;SDS011;76225;52.474;13.332;2024-03-02T08:30:00;49.67;;;21.77;;
85785;SDS011;76225;52.474;13.332;2024-03-02T08:32:26;48.20;;;22.08;;
85785;SDS011;76225;52.474;13.332;2024-03-02T08:34:52;50.72;;;21.58;;
85785;SDS011;76225;52.474;13.332;2024-03-02T08:37:19;47.08;;;20.98;;
85785;SDS011;76225;52.474;13.332;2024-03-02T08:39:45;52.40;;;22.08;;
85785;SDS011;76225;52.474;13.332;2024-03-02T08:42:14;50.97;;;21.77;;
85785;SDS011;76225;52.474;13.332;2024-03-02T08:44:40;47.80;;;20.67;;
85785;SDS011;76225;52.474;13.332;2024-03-02T08:47:05;49.17;;;22.15;;
85785;SDS011;76225;52.474;13.332;2024-03-02T08:49:32;47.83;;;21.50;;
85785;SDS011;76225;52.474;13.332;2024-03-02T08:51:58;44.50;;;20.95;;
85785;SDS011;76225;52.474;13.332;2024-03-02T08:54:23;50.85;;;21.70;;
85785;SDS011;76225;52.474;13.332;2024-03-02T08:56:50;49.03;;;21.48;;
85785;SDS011;76225;52.474;13.332;2024-03-02T08:59:16;47.15;;;22.25;;
85785;SDS011;76225;52.474;13.332;2024-03-02T09:01:43;42.88;;;20.60;;
85785;SDS011;76225;52.474;13.332;2024-03-02T09:04:10;48.17;;;21.05;;
85785;SDS011;76225;52.474;13.332;2024-03-02T09:06:36;48.33;;;21.60;;
85785;SDS011;76225;52.474;13.332;2024-03-02T09:09:02;44.03;;;20.30;;
85785;SDS011;76225;52.474;13.332;2024-03-02T09:11:28;42.60;;;20.45;;
85785;SDS011;76225;52.474;13.332;2024-03-02T09:13:54;42.88;;;21.33;;
85785;SDS011;76225;52.474;13.332;2024-03-02T09:16:21;49.58;;;20.92;;
85785;SDS011;76225;52.474;13.332;2024-03-02T09:18:47;49.75;;;22.33;;
85785;SDS011;76225;52.474;13.332;2024-03-02T09:21:14;56.03;;;22.70;;
85785;SDS011;76225;52.474;13.332;2024-03-02T09:23:41;46.85;;;21.23;;
85785;SDS011;76225;52.474;13.332;2024-03-02T09:26:12;46.47;;;21.67;;
85785;SDS011;76225;52.474;13.332;2024-03-02T09:28:37;48.65;;;20.85;;
85785;SDS011;76225;52.474;13.332;2024-03-02T09:31:04;44.50;;;22.08;;
85785;SDS011;76225;52.474;13.332;2024-03-02T09:33:29;47.78;;;21.15;;
85785;SDS011;76225;52.474;13.332;2024-03-02T09:35:55;43.30;;;19.55;;
85785;SDS011;76225;52.474;13.332;2024-03-02T09:38:27;44.58;;;20.33;;
85785;SDS011;76225;52.474;13.332;2024-03-02T09:41:02;43.38;;;20.23;;
85785;SDS011;76225;52.474;13.332;2024-03-02T09:43:31;40.65;;;18.90;;
85785;SDS011;76225;52.474;13.332;2024-03-02T09:45:56;43.83;;;19.73;;
85785;SDS011;76225;52.474;13.332;2024-03-02T09:48:22;38.55;;;18.48;;
85785;SDS011;76225;52.474;13.332;2024-03-02T09:50:50;39.28;;;18.05;;
85785;SDS011;76225;52.474;13.332;2024-03-02T09:53:16;40.35;;;17.83;;
85785;SDS011;76225;52.474;13.332;2024-03-02T09:55:45;44.60;;;19.25;;
85785;SDS011;76225;52.474;13.332;2024-03-02T09:58:16;39.22;;;18.40;;
85785;SDS011;76225;52.474;13.332;2024-03-02T10:00:43;37.88;;;17.92;;
85785;SDS011;76225;52.474;13.332;2024-03-02T10:03:12;36.08;;;16.60;;
85785;SDS011;76225;52.474;13.332;2024-03-02T10:05:39;37.28;;;17.42;;
85785;SDS011;76225;52.474;13.332;2024-03-02T10:08:07;36.22;;;15.88;;
85785;SDS011;76225;52.474;13.332;2024-03-02T10:10:35;35.67;;;16.40;;
85785;SDS011;76225;52.474;13.332;2024-03-02T10:15:31;34.28;;;15.30;;
85785;SDS011;76225;52.474;13.332;2024-03-02T10:17:57;32.90;;;15.90;;
85785;SDS011;76225;52.474;13.332;2024-03-02T10:20:24;33.65;;;15.57;;
85785;SDS011;76225;52.474;13.332;2024-03-02T10:22:50;38.63;;;17.25;;
85785;SDS011;76225;52.474;13.332;2024-03-02T10:25:29;33.85;;;15.15;;
85785;SDS011;76225;52.474;13.332;2024-03-02T10:28:00;34.97;;;15.18;;
85785;SDS011;76225;52.474;13.332;2024-03-02T10:30:27;29.05;;;15.10;;
85785;SDS011;76225;52.474;13.332;2024-03-02T10:32:53;28.55;;;13.68;;
85785;SDS011;76225;52.474;13.332;2024-03-02T10:35:21;30.55;;;13.57;;
85785;SDS011;76225;52.474;13.332;2024-03-02T10:37:47;27.73;;;13.93;;
85785;SDS011;76225;52.474;13.332;2024-03-02T10:40:17;29.38;;;13.38;;
85785;SDS011;76225;52.474;13.332;2024-03-02T10:42:42;25.73;;;12.70;;
85785;SDS011;76225;52.474;13.332;2024-03-02T10:45:10;32.33;;;14.05;;
85785;SDS011;76225;52.474;13.332;2024-03-02T10:47:37;27.25;;;13.60;;
85785;SDS011;76225;52.474;13.332;2024-03-02T10:50:04;30.40;;;13.75;;
85785;SDS011;76225;52.474;13.332;2024-03-02T10:52:36;29.23;;;14.05;;
85785;SDS011;76225;52.474;13.332;2024-03-02T10:55:08;30.92;;;13.40;;
85785;SDS011;76225;52.474;13.332;2024-03-02T10:57:54;26.83;;;12.55;;
85785;SDS011;76225;52.474;13.332;2024-03-02T11:00:21;26.42;;;13.02;;
85785;SDS011;76225;52.474;13.332;2024-03-02T11:03:05;27.17;;;13.65;;
85785;SDS011;76225;52.474;13.332;2024-03-02T11:05:36;30.38;;;13.18;;
85785;SDS011;76225;52.474;13.332;2024-03-02T11:08:06;28.20;;;12.95;;
85785;SDS011;76225;52.474;13.332;2024-03-02T11:10:35;24.95;;;11.90;;
85785;SDS011;76225;52.474;13.332;2024-03-02T11:13:10;22.90;;;11.57;;
85785;SDS011;76225;52.474;13.332;2024-03-02T11:15:37;24.50;;;12.40;;
85785;SDS011;76225;52.474;13.332;2024-03-02T11:18:05;27.48;;;12.60;;
85785;SDS011;76225;52.474;13.332;2024-03-02T11:20:35;28.20;;;13.23;;
85785;SDS011;76225;52.474;13.332;2024-03-02T11:23:09;25.23;;;11.85;;
85785;SDS011;76225;52.474;13.332;2024-03-02T11:25:36;26.38;;;12.20;;
85785;SDS011;76225;52.474;13.332;2024-03-02T11:28:05;23.75;;;11.30;;
85785;SDS011;76225;52.474;13.332;2024-03-02T11:33:13;24.05;;;10.68;;
85785;SDS011;76225;52.474;13.332;2024-03-02T11:35:51;21.48;;;10.13;;
85785;SDS011;76225;52.474;13.332;2024-03-02T11:38:17;24.08;;;11.43;;
85785;SDS011;76225;52.474;13.332;2024-03-02T11:40:49;26.25;;;12.25;;
85785;SDS011;76225;52.474;13.332;2024-03-02T11:43:14;23.00;;;11.48;;
85785;SDS011;76225;52.474;13.332;2024-03-02T11:46:03;27.52;;;12.15;;
85785;SDS011;76225;52.474;13.332;2024-03-02T11:48:44;19.63;;;10.27;;
85785;SDS011;76225;52.474;13.332;2024-03-02T11:51:32;22.17;;;11.52;;
85785;SDS011;76225;52.474;13.332;2024-03-02T11:54:01;25.75;;;12.88;;
85785;SDS011;76225;52.474;13.332;2024-03-02T11:56:36;23.80;;;11.70;;
85785;SDS011;76225;52.474;13.332;2024-03-02T11:59:03;27.63;;;12.35;;
85785;SDS011;76225;52.474;13.332;2024-03-02T12:01:31;22.63;;;12.00;;
85785;SDS011;76225;52.474;13.332;2024-03-02T12:03:59;24.52;;;12.82;;
85785;SDS011;76225;52.474;13.332;2024-03-02T12:06:25;25.55;;;11.88;;
85785;SDS011;76225;52.474;13.332;2024-03-02T12:09:13;27.35;;;12.65;;
85785;SDS011;76225;52.474;13.332;2024-03-02T12:11:43;23.55;;;11.70;;
85785;SDS011;76225;52.474;13.332;2024-03-02T12:14:13;23.05;;;11.45;;
85785;SDS011;76225;52.474;13.332;2024-03-02T12:16:52;25.55;;;12.63;;
85785;SDS011;76225;52.474;13.332;2024-03-02T12:19:20;25.27;;;12.88;;
85785;SDS011;76225;52.474;13.332;2024-03-02T12:21:52;27.67;;;13.27;;
85785;SDS011;76225;52.474;13.332;2024-03-02T12:24:21;28.88;;;14.25;;
85785;SDS011;76225;52.474;13.332;2024-03-02T12:26:50;28.17;;;13.63;;
85785;SDS011;76225;52.474;13.332;2024-03-02T12:29:21;23.98;;;11.88;;
85785;SDS011;76225;52.474;13.332;2024-03-02T12:31:50;27.33;;;13.90;;
85785;SDS011;76225;52.474;13.332;2024-03-02T12:34:17;29.15;;;13.27;;
85785;SDS011;76225;52.474;13.332;2024-03-02T12:36:43;25.00;;;12.23;;
85785;SDS011;76225;52.474;13.332;2024-03-02T12:39:12;27.83;;;12.88;;
85785;SDS011;76225;52.474;13.332;2024-03-02T12:41:42;26.25;;;13.05;;
85785;SDS011;76225;52.474;13.332;2024-03-02T12:44:07;26.60;;;12.88;;
85785;SDS011;76225;52.474;13.332;2024-03-02T12:46:34;27.05;;;12.90;;
85785;SDS011;76225;52.474;13.332;2024-03-02T12:49:08;28.92;;;13.15;;
85785;SDS011;76225;52.474;13.332;2024-03-02T12:51:41;25.38;;;11.75;;
85785;SDS011;76225;52.474;13.332;2024-03-02T12:54:09;25.35;;;12.45;;
85785;SDS011;76225;52.474;13.332;2024-03-02T12:56:37;28.88;;;13.32;;
85785;SDS011;76225;52.474;13.332;2024-03-02T12:59:04;27.80;;;13.05;;
85785;SDS011;76225;52.474;13.332;2024-03-02T13:01:30;26.17;;;12.75;;
85785;SDS011;76225;52.474;13.332;2024-03-02T13:03:57;23.33;;;12.35;;
85785;SDS011;76225;52.474;13.332;2024-03-02T13:06:23;24.40;;;11.35;;
85785;SDS011;76225;52.474;13.332;2024-03-02T13:08:54;26.20;;;12.73;;
85785;SDS011;76225;52.474;13.332;2024-03-02T13:11:20;22.08;;;11.38;;
85785;SDS011;76225;52.474;13.332;2024-03-02T13:13:46;23.83;;;12.43;;
85785;SDS011;76225;52.474;13.332;2024-03-02T13:16:15;21.98;;;11.93;;
85785;SDS011;76225;52.474;13.332;2024-03-02T13:18:41;25.63;;;12.00;;
85785;SDS011;76225;52.474;13.332;2024-03-02T13:21:17;23.17;;;11.15;;
85785;SDS011;76225;52.474;13.332;2024-03-02T13:24:08;21.95;;;11.32;;
85785;SDS011;76225;52.474;13.332;2024-03-02T13:26:36;20.85;;;11.10;;
85785;SDS011;76225;52.474;13.332;2024-03-02T13:29:08;21.33;;;11.27;;
85785;SDS011;76225;52.474;13.332;2024-03-02T13:31:34;23.02;;;12.63;;
85785;SDS011;76225;52.474;13.332;2024-03-02T13:34:02;22.33;;;11.60;;
85785;SDS011;76225;52.474;13.332;2024-03-02T13:38:58;20.00;;;11.02;;
85785;SDS011;76225;52.474;13.332;2024-03-02T13:41:31;19.52;;;10.85;;
85785;SDS011;76225;52.474;13.332;2024-03-02T13:43:58;21.90;;;10.30;;
85785;SDS011;76225;52.474;13.332;2024-03-02T13:46:26;18.48;;;10.07;;
85785;SDS011;76225;52.474;13.332;2024-03-02T13:48:55;23.63;;;10.95;;
85785;SDS011;76225;52.474;13.332;2024-03-02T13:51:21;20.20;;;10.82;;
85785;SDS011;76225;52.474;13.332;2024-03-02T13:53:48;25.02;;;11.63;;
85785;SDS011;76225;52.474;13.332;2024-03-02T13:56:16;21.83;;;11.00;;
85785;SDS011;76225;52.474;13.332;2024-03-02T13:58:45;22.23;;;10.60;;
85785;SDS011;76225;52.474;13.332;2024-03-02T14:01:11;21.48;;;10.77;;
85785;SDS011;76225;52.474;13.332;2024-03-02T14:03:37;19.33;;;9.95;;
85785;SDS011;76225;52.474;13.332;2024-03-02T14:06:07;22.13;;;11.32;;
85785;SDS011;76225;52.474;13.332;2024-03-02T14:08:34;21.52;;;10.75;;
85785;SDS011;76225;52.474;13.332;2024-03-02T14:11:02;20.20;;;9.75;;
85785;SDS011;76225;52.474;13.332;2024-03-02T14:13:30;20.67;;;9.07;;
85785;SDS011;76225;52.474;13.332;2024-03-02T14:15:57;18.88;;;9.40;;
85785;SDS011;76225;52.474;13.332;2024-03-02T14:18:23;20.95;;;9.85;;
85785;SDS011;76225;52.474;13.332;2024-03-02T14:20:49;15.88;;;8.20;;
85785;SDS011;76225;52.474;13.332;2024-03-02T14:23:18;15.95;;;8.43;;
85785;SDS011;76225;52.474;13.332;2024-03-02T14:25:51;14.15;;;8.32;;
85785;SDS011;76225;52.474;13.332;2024-03-02T14:28:28;15.50;;;8.02;;
85785;SDS011;76225;52.474;13.332;2024-03-02T14:30:56;16.90;;;8.23;;
85785;SDS011;76225;52.474;13.332;2024-03-02T14:33:25;14.23;;;6.53;;
85785;SDS011;76225;52.474;13.332;2024-03-02T14:36:04;17.90;;;8.27;;
85785;SDS011;76225;52.474;13.332;2024-03-02T14:38:32;15.60;;;8.23;;
85785;SDS011;76225;52.474;13.332;2024-03-02T14:43:34;18.40;;;8.48;;
85785;SDS011;76225;52.474;13.332;2024-03-02T14:46:23;18.35;;;7.90;;